Time;durP1;ratioP1;P1;durP2;ratioP2;P2;SDS_P1;SDS_P2;PMS_P1;PMS_P2;Temp;Humidity;BMP_temperature;BMP_pressure;BME280_temperature;BME280_humidity;BME280_pressure;Samples;Min_cycle;Max_cycle;Signal;HPM_P1;HPM_P2
2021/04/19 00:01:34;;;;;;;15.63;11.63;;;6.60;96.80;;;;;;5094132;28;20119;-86
2021/04/19 00:04:00;;;;;;;14.40;10.70;;;6.60;96.80;;;;;;5094061;28;20028;-86
2021/04/19 00:06:26;;;;;;;15.30;12.20;;;6.60;96.70;;;;;;5094021;28;20028;-87
2021/04/19 00:08:52;;;;;;;16.48;12.10;;;6.50;96.70;;;;;;5094504;28;20085;-86
2021/04/19 00:11:18;;;;;;;15.73;11.52;;;6.40;96.90;;;;;;5094123;28;20055;-87
2021/04/19 00:13:44;;;;;;;17.80;12.45;;;6.40;96.90;;;;;;5093988;28;20067;-86
2021/04/19 00:16:10;;;;;;;15.55;10.45;;;6.40;97.00;;;;;;5094132;28;20035;-86
2021/04/19 00:18:36;;;;;;;15.70;11.05;;;6.50;97.00;;;;;;5094301;28;20028;-86
2021/04/19 00:21:02;;;;;;;15.98;11.70;;;6.50;96.90;;;;;;5093971;28;20028;-86
2021/04/19 00:23:28;;;;;;;18.42;13.00;;;6.50;97.00;;;;;;5095132;28;20071;-87
2021/04/19 00:25:54;;;;;;;16.75;12.32;;;6.50;97.00;;;;;;5093519;28;20064;-86
2021/04/19 00:28:20;;;;;;;18.48;13.15;;;6.50;96.90;;;;;;5093826;28;20038;-87
2021/04/19 00:30:45;;;;;;;17.08;11.77;;;6.40;97.00;;;;;;5094652;28;20032;-87
2021/04/19 00:33:11;;;;;;;19.83;14.35;;;6.40;97.00;;;;;;5093443;28;20081;-87
2021/04/19 00:35:37;;;;;;;18.58;13.43;;;6.30;97.30;;;;;;5095419;28;20039;-85
2021/04/19 00:38:03;;;;;;;20.25;14.10;;;6.30;97.30;;;;;;5097022;28;20040;-86
2021/04/19 00:40:31;;;;;;;19.38;12.57;;;6.20;97.20;;;;;;5096599;28;20024;-86
2021/04/19 00:42:57;;;;;;;21.35;14.35;;;6.20;97.30;;;;;;5096806;28;20080;-86
2021/04/19 00:45:24;;;;;;;22.13;15.15;;;6.20;97.50;;;;;;5114980;28;20035;-86
2021/04/19 00:47:49;;;;;;;23.00;15.55;;;6.20;97.70;;;;;;5096782;28;20034;-86
2021/04/19 00:50:26;;;;;;;24.90;16.45;;;6.10;97.80;;;;;;5096772;28;20032;-86
2021/04/19 00:52:53;;;;;;;21.48;14.25;;;6.00;98.10;;;;;;5096749;28;20031;-86
2021/04/19 00:55:18;;;;;;;19.92;13.98;;;5.90;97.90;;;;;;5097140;28;20035;-86
2021/04/19 00:57:45;;;;;;;24.20;15.13;;;5.90;97.80;;;;;;5078946;28;20413;-86
2021/04/19 01:00:32;;;;;;;20.27;13.60;;;5.80;98.00;;;;;;5076400;28;20028;-86
2021/04/19 01:02:59;;;;;;;20.48;13.30;;;5.80;97.80;;;;;;5076382;28;20059;-86
2021/04/19 01:05:30;;;;;;;19.92;12.60;;;5.70;97.80;;;;;;5094416;28;20031;-86
2021/04/19 01:07:56;;;;;;;20.63;13.57;;;5.60;98.00;;;;;;5076252;28;20464;-86
2021/04/19 01:10:22;;;;;;;18.23;12.15;;;5.60;98.00;;;;;;5094411;28;20052;-86
2021/04/19 01:12:49;;;;;;;18.30;12.25;;;5.60;97.70;;;;;;5076408;28;20420;-86
2021/04/19 01:15:15;;;;;;;20.83;13.13;;;5.60;97.60;;;;;;5076391;28;20059;-86
2021/04/19 01:17:46;;;;;;;21.10;12.88;;;5.50;97.70;;;;;;5076380;28;20494;-86
2021/04/19 01:20:15;;;;;;;23.15;12.95;;;5.50;97.70;;;;;;5075952;28;20032;-86
2021/04/19 01:22:42;;;;;;;18.05;12.27;;;5.50;97.60;;;;;;5076188;28;20036;-86
2021/04/19 01:25:12;;;;;;;20.30;12.50;;;5.50;97.60;;;;;;5076819;28;20036;-86
2021/04/19 01:27:38;;;;;;;16.52;11.75;;;5.50;97.60;;;;;;5076174;28;20068;-86
2021/04/19 01:30:05;;;;;;;16.98;11.27;;;5.40;97.50;;;;;;5076283;28;20036;-86
2021/04/19 01:32:31;;;;;;;15.63;10.13;;;5.40;97.50;;;;;;5075953;28;20085;-86
2021/04/19 01:34:57;;;;;;;15.48;10.63;;;5.40;97.40;;;;;;5094600;28;20024;-86
2021/04/19 01:37:23;;;;;;;14.95;9.57;;;5.40;97.40;;;;;;5109204;28;20052;-86
2021/04/19 01:39:48;;;;;;;19.67;11.85;;;5.40;97.40;;;;;;5096516;28;20086;-87
2021/04/19 01:42:14;;;;;;;17.75;12.30;;;5.40;97.80;;;;;;5096329;28;20039;-86
2021/04/19 01:44:40;;;;;;;18.63;12.32;;;5.30;98.10;;;;;;5096370;28;20032;-86
2021/04/19 01:47:06;;;;;;;18.13;11.32;;;5.30;98.20;;;;;;5095979;28;20047;-87
2021/04/19 01:49:32;;;;;;;18.05;11.40;;;5.30;98.20;;;;;;5096392;28;20042;-86
2021/04/19 01:51:59;;;;;;;18.88;12.18;;;5.40;98.10;;;;;;5097394;28;20036;-87
2021/04/19 01:54:24;;;;;;;16.05;11.10;;;5.30;98.10;;;;;;5100618;28;20088;-87
2021/04/19 01:56:50;;;;;;;15.85;10.05;;;5.30;97.90;;;;;;5118278;28;20028;-86
2021/04/19 01:59:17;;;;;;;13.70;9.63;;;5.30;97.80;;;;;;5100165;28;20038;-87
2021/04/19 02:02:20;;;;;;;15.45;10.18;;;5.40;97.80;;;;;;5118058;28;20132;-87
2021/04/19 02:05:14;;;;;;;15.68;10.45;;;5.40;97.70;;;;;;5099844;28;20086;-86
2021/04/19 02:07:54;;;;;;;13.40;8.90;;;5.40;97.70;;;;;;5100268;28;20114;-87
2021/04/19 02:10:26;;;;;;;15.55;10.50;;;5.40;97.60;;;;;;5100540;28;20147;-87
2021/04/19 02:13:16;;;;;;;16.30;11.07;;;5.40;97.70;;;;;;5117934;28;20032;-87
2021/04/19 02:15:53;;;;;;;13.85;9.68;;;5.40;97.70;;;;;;5099570;28;20104;-87
2021/04/19 02:18:24;;;;;;;14.43;10.15;;;5.40;97.60;;;;;;5099735;28;20032;-86
2021/04/19 02:21:04;;;;;;;15.88;10.40;;;5.40;97.50;;;;;;5099442;28;20027;-87
2021/04/19 02:23:38;;;;;;;17.65;11.48;;;5.40;97.40;;;;;;5117769;28;20031;-87
2021/04/19 02:26:12;;;;;;;17.95;11.63;;;5.40;97.50;;;;;;5099387;28;20042;-87
2021/04/19 02:29:06;;;;;;;15.35;9.98;;;5.40;97.60;;;;;;5117480;28;20031;-86
2021/04/19 02:31:39;;;;;;;14.88;9.95;;;5.40;97.40;;;;;;5117484;28;20031;-86
2021/04/19 02:34:10;;;;;;;15.27;9.80;;;5.40;97.30;;;;;;5098989;28;20046;-87
2021/04/19 02:36:40;;;;;;;15.20;10.20;;;5.40;97.20;;;;;;5095633;28;20143;-87
2021/04/19 02:39:06;;;;;;;15.10;10.23;;;5.40;97.20;;;;;;5095585;28;20060;-86
2021/04/19 02:41:35;;;;;;;16.55;10.73;;;5.40;97.10;;;;;;5095795;28;20056;-87
2021/04/19 02:44:01;;;;;;;19.15;12.30;;;5.30;97.20;;;;;;5095837;28;20083;-87
2021/04/19 02:46:29;;;;;;;17.08;10.80;;;5.30;97.40;;;;;;5095481;28;20040;-87
2021/04/19 02:48:56;;;;;;;16.00;10.07;;;5.30;97.10;;;;;;5095573;28;20036;-87
2021/04/19 02:51:22;;;;;;;14.30;9.27;;;5.30;97.10;;;;;;5095195;28;20039;-87
2021/04/19 02:53:49;;;;;;;16.65;10.85;;;5.30;97.10;;;;;;5095385;28;20039;-87
2021/04/19 02:56:16;;;;;;;16.20;10.85;;;5.20;97.20;;;;;;5095201;28;20028;-86
2021/04/19 02:58:46;;;;;;;16.13;10.68;;;5.30;97.10;;;;;;5096330;28;20040;-86
2021/04/19 03:01:19;;;;;;;16.55;11.35;;;5.20;97.10;;;;;;5096779;28;20028;-86
2021/04/19 03:03:47;;;;;;;15.15;10.10;;;5.30;97.20;;;;;;5096187;28;20028;-87
2021/04/19 03:06:14;;;;;;;14.77;10.43;;;5.30;97.10;;;;;;5095067;28;20046;-86
2021/04/19 03:08:46;;;;;;;17.38;11.60;;;5.30;97.10;;;;;;5095402;28;20483;-86
2021/04/19 03:11:19;;;;;;;14.15;9.23;;;5.30;97.20;;;;;;5095161;28;20039;-87
2021/04/19 03:13:47;;;;;;;16.13;10.07;;;5.40;97.10;;;;;;5096073;28;20036;-87
2021/04/19 03:16:13;;;;;;;14.18;8.85;;;5.40;97.10;;;;;;5094236;28;20032;-87
2021/04/19 03:18:40;;;;;;;17.38;11.00;;;5.50;97.10;;;;;;5095856;28;20024;-87
2021/04/19 03:21:12;;;;;;;14.18;9.68;;;5.60;97.00;;;;;;5094035;28;20031;-85
2021/04/19 03:23:47;;;;;;;14.57;9.95;;;5.70;96.90;;;;;;5094045;28;20074;-86
2021/04/19 03:26:15;;;;;;;18.30;12.20;;;5.70;96.80;;;;;;5094304;28;20040;-87
2021/04/19 03:28:47;;;;;;;17.17;10.90;;;5.70;97.00;;;;;;5094476;28;20043;-85
2021/04/19 03:31:37;;;;;;;16.83;11.20;;;5.70;96.70;;;;;;5093871;28;20135;-86
2021/04/19 03:34:09;;;;;;;20.27;13.43;;;5.80;96.70;;;;;;5085610;28;20043;-86
2021/04/19 03:36:35;;;;;;;19.25;12.50;;;5.70;96.60;;;;;;5097443;28;20135;-86
2021/04/19 03:39:02;;;;;;;19.75;13.05;;;5.60;97.10;;;;;;5097913;28;20028;-87
2021/04/19 03:41:31;;;;;;;20.13;13.23;;;5.60;97.10;;;;;;5116092;28;20080;-86
2021/04/19 03:44:00;;;;;;;17.23;11.57;;;5.60;97.00;;;;;;5097548;28;20036;-85
2021/04/19 03:46:30;;;;;;;15.60;11.05;;;5.70;97.00;;;;;;5097191;28;20173;-85
2021/04/19 03:49:02;;;;;;;18.38;12.35;;;5.70;96.70;;;;;;5097546;28;20036;-85
2021/04/19 03:51:31;;;;;;;15.93;11.15;;;5.80;96.70;;;;;;5097382;28;20126;-85
2021/04/19 03:53:57;;;;;;;17.85;12.65;;;5.80;96.80;;;;;;5097535;28;20401;-85
2021/04/19 03:56:25;;;;;;;17.15;11.88;;;5.80;96.90;;;;;;5097250;28;20031;-85
2021/04/19 03:58:52;;;;;;;17.58;11.18;;;5.90;97.00;;;;;;5115653;28;20103;-85
2021/04/19 04:01:20;;;;;;;17.83;11.73;;;5.90;96.90;;;;;;5097132;28;20055;-84
2021/04/19 04:03:48;;;;;;;20.83;13.13;;;5.90;96.80;;;;;;5097226;28;20108;-86
2021/04/19 04:06:15;;;;;;;17.55;11.98;;;5.80;96.90;;;;;;5097189;28;20035;-84
2021/04/19 04:08:41;;;;;;;17.08;11.70;;;5.80;97.00;;;;;;5115300;28;20039;-82
2021/04/19 04:11:09;;;;;;;18.48;12.75;;;6.00;96.90;;;;;;5114689;28;20047;-81
2021/04/19 04:13:36;;;;;;;17.17;12.07;;;6.00;96.70;;;;;;5114583;28;20436;-81
2021/04/19 04:16:01;;;;;;;18.48;13.13;;;5.90;96.90;;;;;;5114079;28;20026;-82
2021/04/19 04:18:27;;;;;;;21.63;13.18;;;5.90;97.10;;;;;;5096374;28;20028;-83
2021/04/19 04:20:54;;;;;;;17.33;11.98;;;6.00;97.20;;;;;;5096387;28;20092;-81
2021/04/19 04:23:20;;;;;;;16.50;11.60;;;6.10;97.30;;;;;;5114552;28;20114;-82
2021/04/19 04:25:46;;;;;;;17.50;11.13;;;6.30;96.80;;;;;;5096368;28;20118;-88
2021/04/19 04:28:12;;;;;;;17.20;12.45;;;6.40;96.60;;;;;;5096724;28;20055;-81
2021/04/19 04:30:39;;;;;;;16.80;11.73;;;6.40;96.40;;;;;;5114022;28;20035;-80
2021/04/19 04:33:06;;;;;;;17.20;11.98;;;6.40;96.50;;;;;;5114311;28;20032;-83
2021/04/19 04:35:33;;;;;;;15.77;10.85;;;6.50;96.30;;;;;;5114716;28;20373;-77
2021/04/19 04:37:59;;;;;;;14.48;10.23;;;6.60;96.20;;;;;;5114236;28;20051;-76
2021/04/19 04:40:30;;;;;;;17.30;11.20;;;6.70;95.90;;;;;;5114610;28;20019;-76
2021/04/19 04:43:03;;;;;;;17.10;11.85;;;6.80;95.60;;;;;;5119578;27;20118;-77
2021/04/19 04:45:29;;;;;;;17.70;12.93;;;6.70;95.60;;;;;;5116479;27;20027;-78
2021/04/19 04:48:07;;;;;;;18.00;12.55;;;6.50;95.90;;;;;;5099973;28;20036;-80
2021/04/19 04:50:54;;;;;;;15.93;11.02;;;6.40;96.10;;;;;;5091303;28;20498;-79
2021/04/19 04:53:32;;;;;;;17.33;11.82;;;6.50;96.10;;;;;;5095880;28;20039;-80
2021/04/19 04:56:00;;;;;;;14.02;10.35;;;6.60;96.10;;;;;;5095783;28;20038;-81
2021/04/19 04:58:26;;;;;;;17.23;11.40;;;6.70;96.00;;;;;;5095770;28;20377;-81
2021/04/19 05:00:53;;;;;;;14.40;10.95;;;6.70;95.90;;;;;;5095782;28;20034;-77
2021/04/19 05:03:20;;;;;;;15.90;10.98;;;6.80;95.90;;;;;;5114001;28;20377;-77
2021/04/19 05:05:46;;;;;;;17.02;12.05;;;6.80;95.60;;;;;;5114059;28;20384;-77
2021/04/19 05:08:16;;;;;;;15.02;10.93;;;6.90;95.70;;;;;;5114024;28;20028;-78
2021/04/19 05:10:43;;;;;;;18.40;12.55;;;6.80;95.70;;;;;;5113982;28;20038;-77
2021/04/19 05:13:13;;;;;;;17.45;11.70;;;6.80;95.80;;;;;;5113913;28;20139;-77
2021/04/19 05:15:47;;;;;;;29.45;11.25;;;6.90;95.60;;;;;;5095400;28;20042;-79
2021/04/19 05:18:14;;;;;;;14.32;10.88;;;7.10;95.40;;;;;;5113875;28;20034;-78
2021/04/19 05:20:40;;;;;;;32.78;20.17;;;7.20;95.50;;;;;;5113551;28;20120;-81
2021/04/19 05:23:06;;;;;;;14.88;10.90;;;7.40;95.50;;;;;;5095618;28;20038;-77
2021/04/19 05:25:33;;;;;;;13.48;10.75;;;7.60;95.20;;;;;;5113877;28;20031;-80
2021/04/19 05:27:59;;;;;;;14.57;10.93;;;7.50;94.30;;;;;;5098312;28;20031;-82
2021/04/19 05:30:29;;;;;;;13.82;10.55;;;7.40;94.30;;;;;;5099807;28;20036;-82
2021/04/19 05:32:55;;;;;;;13.57;10.53;;;7.50;94.20;;;;;;5118097;28;20058;-81
2021/04/19 05:35:22;;;;;;;14.52;10.82;;;7.40;94.60;;;;;;5099828;28;20027;-81
2021/04/19 05:37:49;;;;;;;15.93;11.63;;;7.60;94.60;;;;;;5099317;28;20040;-82
2021/04/19 05:40:25;;;;;;;14.32;10.73;;;7.80;94.00;;;;;;5099370;28;20031;-82
2021/04/19 05:42:52;;;;;;;13.80;10.95;;;7.80;93.40;;;;;;5116015;28;20080;-77
2021/04/19 05:45:18;;;;;;;14.27;10.70;;;7.90;94.00;;;;;;5116484;28;20836;-79
2021/04/19 05:47:47;;;;;;;14.82;11.00;;;8.10;94.10;;;;;;5116468;28;20032;-83
2021/04/19 05:50:16;;;;;;;16.20;11.20;;;8.00;93.70;;;;;;5116643;28;20611;-86
2021/04/19 05:52:46;;;;;;;15.90;11.38;;;8.10;93.30;;;;;;5116819;28;20430;-83
2021/04/19 05:55:14;;;;;;;14.80;10.80;;;8.00;93.50;;;;;;5116295;28;20034;-82
2021/04/19 05:58:00;;;;;;;14.15;10.98;;;8.10;93.50;;;;;;5117339;28;20100;-83
2021/04/19 06:00:31;;;;;;;13.65;10.85;;;8.30;93.30;;;;;;5116070;28;20027;-82
2021/04/19 06:03:17;;;;;;;12.73;10.35;;;8.40;92.90;;;;;;5114529;28;20086;-83
2021/04/19 06:06:07;;;;;;;12.57;9.40;;;8.40;92.70;;;;;;5102749;28;20508;-84
2021/04/19 06:08:41;;;;;;;13.98;11.18;;;8.60;93.20;;;;;;5112224;28;20126;-84
2021/04/19 06:11:17;;;;;;;12.05;9.15;;;8.60;92.50;;;;;;5099571;28;20042;-91
2021/04/19 06:13:45;;;;;;;17.42;10.60;;;8.70;92.90;;;;;;5099696;28;20050;-91
2021/04/19 06:16:12;;;;;;;14.02;10.75;;;8.70;92.30;;;;;;5116885;28;20093;-76
2021/04/19 06:18:43;;;;;;;14.18;11.27;;;8.70;92.60;;;;;;5116839;28;20028;-76
2021/04/19 06:21:09;;;;;;;15.80;10.05;;;8.80;92.40;;;;;;5116528;28;20024;-76
2021/04/19 06:23:35;;;;;;;13.20;10.40;;;8.80;92.30;;;;;;5115537;28;20024;-77
2021/04/19 06:26:01;;;;;;;12.18;10.05;;;8.70;92.00;;;;;;5115043;28;20031;-77
2021/04/19 06:28:26;;;;;;;12.52;9.80;;;8.90;92.50;;;;;;5115066;28;20027;-77
2021/04/19 06:30:53;;;;;;;12.98;10.63;;;9.00;92.30;;;;;;5096386;28;20042;-78
2021/04/19 06:33:20;;;;;;;14.52;11.27;;;9.00;92.00;;;;;;5114873;28;20039;-78
2021/04/19 06:35:47;;;;;;;13.50;10.23;;;9.10;92.10;;;;;;5113046;28;20034;-78
2021/04/19 06:38:13;;;;;;;13.27;10.70;;;9.10;92.10;;;;;;5093906;28;20473;-78
2021/04/19 06:40:42;;;;;;;15.15;12.25;;;9.10;92.10;;;;;;5094372;28;20024;-77
2021/04/19 06:43:08;;;;;;;15.27;10.07;;;8.90;91.90;;;;;;5094569;28;20103;-78
2021/04/19 06:45:36;;;;;;;13.88;10.77;;;9.10;92.10;;;;;;5094349;28;20036;-78
2021/04/19 06:48:06;;;;;;;14.70;11.25;;;9.00;92.00;;;;;;5094973;28;20094;-78
2021/04/19 06:50:32;;;;;;;13.23;10.30;;;9.10;92.00;;;;;;5094147;28;20036;-80
2021/04/19 06:52:58;;;;;;;15.63;11.30;;;9.20;92.00;;;;;;5094079;28;20032;-80
2021/04/19 06:55:24;;;;;;;13.30;10.23;;;9.30;92.00;;;;;;5094351;28;20044;-79
2021/04/19 06:57:55;;;;;;;16.15;12.10;;;9.30;92.00;;;;;;5075702;28;20460;-79
2021/04/19 07:00:27;;;;;;;13.50;11.32;;;9.40;91.50;;;;;;5075859;28;20064;-79
2021/04/19 07:02:55;;;;;;;16.70;12.40;;;9.50;92.10;;;;;;5076107;28;20036;-79
2021/04/19 07:05:24;;;;;;;13.77;11.05;;;9.50;91.20;;;;;;5095712;28;20401;-79
2021/04/19 07:08:13;;;;;;;13.40;10.23;;;9.30;91.60;;;;;;5096203;28;20470;-79
2021/04/19 07:10:39;;;;;;;14.52;11.90;;;9.30;91.50;;;;;;5095700;28;20048;-79
2021/04/19 07:13:11;;;;;;;14.57;11.23;;;9.20;91.70;;;;;;5095655;28;20024;-80
2021/04/19 07:15:41;;;;;;;15.25;11.82;;;9.20;91.80;;;;;;5095659;28;20027;-78
2021/04/19 07:18:08;;;;;;;14.90;12.00;;;9.30;91.60;;;;;;5077571;28;20032;-78
2021/04/19 07:20:34;;;;;;;13.30;10.63;;;9.30;91.70;;;;;;5095824;28;20039;-78
2021/04/19 07:23:01;;;;;;;13.02;11.30;;;9.40;91.60;;;;;;5077388;28;20036;-79
2021/04/19 07:25:28;;;;;;;14.85;11.50;;;9.40;91.50;;;;;;5076946;28;20039;-79
2021/04/19 07:27:55;;;;;;;13.63;11.60;;;9.50;91.60;;;;;;5095319;28;20043;-79
2021/04/19 07:30:20;;;;;;;12.43;10.50;;;9.50;91.40;;;;;;5095379;28;20039;-79
2021/04/19 07:32:46;;;;;;;12.23;10.25;;;9.50;90.80;;;;;;5095423;28;20032;-80
2021/04/19 07:35:13;;;;;;;14.13;11.35;;;9.60;91.10;;;;;;5077404;28;20058;-78
2021/04/19 07:37:53;;;;;;;14.10;11.65;;;9.60;90.80;;;;;;5077263;28;20249;-78
2021/04/19 07:40:36;;;;;;;;;;;9.50;90.40;;;;;;5077315;28;20077;-79
2021/04/19 07:43:17;;;;;;;12.90;10.90;;;9.70;90.90;;;;;;5110678;28;19911;-78
2021/04/19 07:45:59;;;;;;;11.43;10.05;;;9.70;90.40;;;;;;5077041;28;20470;-79
2021/04/19 07:48:30;;;;;;;13.75;10.27;;;9.70;90.80;;;;;;5076781;28;20085;-79
2021/04/19 07:50:58;;;;;;;24.60;12.90;;;9.90;90.70;;;;;;5093948;28;20115;-79
2021/04/19 07:53:24;;;;;;;13.05;10.32;;;9.90;90.70;;;;;;5094501;28;20039;-78
2021/04/19 07:55:52;;;;;;;13.68;10.77;;;10.00;90.70;;;;;;5092032;28;20024;-78
2021/04/19 07:58:22;;;;;;;15.02;11.73;;;10.10;90.60;;;;;;5094566;28;20493;-78
2021/04/19 08:00:49;;;;;;;11.88;9.82;;;10.00;90.10;;;;;;5094702;28;20028;-80
2021/04/19 08:03:19;;;;;;;14.23;11.55;;;10.20;90.30;;;;;;5076616;28;20032;-78
2021/04/19 08:05:48;;;;;;;27.92;13.38;;;10.20;90.20;;;;;;5094917;28;20028;-78
2021/04/19 08:08:16;;;;;;;12.38;10.43;;;10.20;89.80;;;;;;5094510;28;20036;-80
2021/04/19 08:10:44;;;;;;;16.40;10.88;;;10.10;90.30;;;;;;5076317;28;20123;-79
2021/04/19 08:13:12;;;;;;;12.70;10.98;;;10.20;90.20;;;;;;5094252;28;20032;-80
2021/04/19 08:15:40;;;;;;;13.20;10.85;;;10.30;90.20;;;;;;5094307;28;20107;-79
2021/04/19 08:18:11;;;;;;;12.57;10.50;;;10.40;90.00;;;;;;5094493;28;20016;-79
2021/04/19 08:20:46;;;;;;;14.18;10.15;;;10.40;89.00;;;;;;5094350;28;20028;-79
2021/04/19 08:23:14;;;;;;;10.82;9.15;;;10.40;89.50;;;;;;5076095;28;20036;-79
2021/04/19 08:25:46;;;;;;;13.25;11.15;;;10.40;89.90;;;;;;5094632;28;20470;-80
2021/04/19 08:28:20;;;;;;;11.10;9.23;;;10.50;90.00;;;;;;5075772;28;20044;-78
2021/04/19 08:30:55;;;;;;;11.10;9.52;;;10.60;89.90;;;;;;5093774;28;20107;-78
2021/04/19 08:33:22;;;;;;;10.23;8.93;;;10.70;89.20;;;;;;5093491;28;20109;-79
2021/04/19 08:35:50;;;;;;;11.55;9.68;;;10.80;89.50;;;;;;5077164;28;20454;-78
2021/04/19 08:38:21;;;;;;;10.68;9.40;;;11.00;88.20;;;;;;5113906;28;20474;-78
2021/04/19 08:40:50;;;;;;;11.02;8.90;;;11.10;88.90;;;;;;5113940;28;20026;-79
2021/04/19 08:43:20;;;;;;;12.32;10.02;;;11.20;88.60;;;;;;5113678;28;20043;-79
2021/04/19 08:45:47;;;;;;;11.45;8.73;;;11.40;87.30;;;;;;5113924;28;20024;-80
2021/04/19 08:48:14;;;;;;;11.60;9.85;;;11.40;88.00;;;;;;5111662;28;20027;-79
2021/04/19 08:50:42;;;;;;;10.48;9.02;;;11.50;87.40;;;;;;5112143;28;20498;-80
2021/04/19 08:53:10;;;;;;;9.82;8.68;;;11.60;86.40;;;;;;5111360;28;20497;-79
2021/04/19 08:55:36;;;;;;;11.15;8.68;;;11.60;85.40;;;;;;5093350;28;20035;-79
2021/04/19 08:58:08;;;;;;;11.20;8.95;;;11.60;85.90;;;;;;5111500;28;20026;-79
2021/04/19 09:00:35;;;;;;;9.40;8.18;;;11.60;85.90;;;;;;5093157;28;20027;-79
2021/04/19 09:03:01;;;;;;;10.13;8.25;;;11.80;85.10;;;;;;5111304;28;20095;-79
2021/04/19 09:05:27;;;;;;;8.55;6.75;;;11.70;84.60;;;;;;5111304;28;20073;-79
2021/04/19 09:08:05;;;;;;;8.75;7.25;;;11.80;84.40;;;;;;5112012;28;20046;-79
2021/04/19 09:10:56;;;;;;;7.45;6.22;;;11.90;84.20;;;;;;5094274;28;20031;-78
2021/04/19 09:13:31;;;;;;;8.77;6.78;;;12.10;81.00;;;;;;5093036;28;20043;-79
2021/04/19 09:16:12;;;;;;;6.88;5.88;;;12.30;82.40;;;;;;5111227;28;20377;-79
2021/04/19 09:18:39;;;;;;;9.40;6.55;;;12.60;82.00;;;;;;5111287;28;20028;-78
2021/04/19 09:21:05;;;;;;;7.72;5.70;;;12.90;80.30;;;;;;5093219;28;20031;-78
2021/04/19 09:23:32;;;;;;;6.55;5.60;;;13.10;80.00;;;;;;5111102;28;20039;-79
2021/04/19 09:25:59;;;;;;;7.57;6.45;;;13.40;79.30;;;;;;5093106;28;20056;-78
2021/04/19 09:28:40;;;;;;;6.60;5.80;;;13.40;78.40;;;;;;5111265;28;20059;-78
2021/04/19 09:31:11;;;;;;;5.43;4.93;;;13.70;76.80;;;;;;5092879;28;20427;-79
2021/04/19 09:33:38;;;;;;;7.75;5.20;;;13.80;74.60;;;;;;5093388;28;20047;-79
2021/04/19 09:36:05;;;;;;;8.23;6.15;;;13.90;77.40;;;;;;5092812;28;20054;-77
2021/04/19 09:38:31;;;;;;;6.90;5.95;;;14.10;75.00;;;;;;5092817;28;20047;-79
2021/04/19 09:41:00;;;;;;;7.07;6.38;;;14.10;75.40;;;;;;5112229;28;20024;-79
2021/04/19 09:43:36;;;;;;;5.80;5.25;;;14.00;75.20;;;;;;5113579;28;20044;-78
2021/04/19 09:46:01;;;;;;;6.85;5.45;;;14.20;74.60;;;;;;5095048;28;20504;-79
2021/04/19 09:48:38;;;;;;;5.78;5.18;;;14.00;74.50;;;;;;5113299;28;20023;-79
2021/04/19 09:51:12;;;;;;;5.90;5.03;;;13.90;75.30;;;;;;5094860;28;20091;-80
2021/04/19 09:53:37;;;;;;;6.63;5.20;;;13.90;75.00;;;;;;5114134;28;20028;-79
2021/04/19 09:56:04;;;;;;;6.03;4.65;;;13.80;74.80;;;;;;5113124;28;20522;-79
2021/04/19 09:58:29;;;;;;;5.40;4.90;;;13.90;75.20;;;;;;5094758;28;20050;-79
2021/04/19 10:00:56;;;;;;;7.65;5.43;;;13.80;74.70;;;;;;5094739;28;20032;-79
2021/04/19 10:03:22;;;;;;;6.85;5.60;;;13.60;73.90;;;;;;5113023;28;20473;-79
2021/04/19 10:05:54;;;;;;;5.13;4.60;;;13.60;74.40;;;;;;5113037;28;20036;-79
2021/04/19 10:08:21;;;;;;;7.88;5.03;;;13.70;73.90;;;;;;5113036;28;20039;-79
2021/04/19 10:10:58;;;;;;;5.95;5.13;;;13.80;72.50;;;;;;5094311;28;20067;-77
2021/04/19 10:13:37;;;;;;;5.50;4.90;;;13.90;72.90;;;;;;5115913;28;20038;-78
2021/04/19 10:16:04;;;;;;;5.60;5.05;;;13.80;71.90;;;;;;5098494;28;20050;-80
2021/04/19 10:18:32;;;;;;;4.97;4.35;;;14.00;72.10;;;;;;5117337;28;20035;-79
2021/04/19 10:20:57;;;;;;;6.70;5.68;;;14.10;73.10;;;;;;5116357;28;20020;-78
2021/04/19 10:23:41;;;;;;;8.05;5.63;;;14.10;70.50;;;;;;5116337;28;20104;-80
2021/04/19 10:26:09;;;;;;;5.75;5.00;;;14.00;71.80;;;;;;5116410;28;20544;-80
2021/04/19 10:28:43;;;;;;;5.55;4.30;;;14.10;72.70;;;;;;5116288;28;20039;-79
2021/04/19 10:31:20;;;;;;;5.43;4.65;;;14.30;72.60;;;;;;5098374;28;20039;-79
2021/04/19 10:33:52;;;;;;;5.18;4.03;;;14.50;71.80;;;;;;5116187;28;20038;-79
2021/04/19 10:36:19;;;;;;;5.03;4.53;;;14.80;71.00;;;;;;5116049;28;20051;-79
2021/04/19 10:38:49;;;;;;;4.40;3.92;;;15.00;71.80;;;;;;5116215;28;20512;-79
2021/04/19 10:41:16;;;;;;;4.65;4.20;;;15.20;71.30;;;;;;5116262;28;20101;-79
2021/04/19 10:43:43;;;;;;;4.97;4.35;;;15.40;70.20;;;;;;5116124;28;20034;-79
2021/04/19 10:46:25;;;;;;;4.45;4.05;;;15.40;69.40;;;;;;5097811;28;20401;-79
2021/04/19 10:48:54;;;;;;;5.03;3.70;;;15.50;68.90;;;;;;5116185;28;20386;-79
2021/04/19 10:51:23;;;;;;;4.93;4.37;;;15.70;69.80;;;;;;5115978;28;20393;-79
2021/04/19 10:53:49;;;;;;;5.55;4.70;;;15.80;68.30;;;;;;5115771;28;20087;-79
2021/04/19 10:56:24;;;;;;;5.20;4.70;;;15.70;67.90;;;;;;5115753;28;20027;-79
2021/04/19 10:59:10;;;;;;;5.43;4.90;;;15.70;68.20;;;;;;5115812;28;20019;-79
2021/04/19 11:01:39;;;;;;;5.32;4.80;;;15.50;66.30;;;;;;5115764;28;20027;-79
2021/04/19 11:04:07;;;;;;;4.55;4.05;;;15.40;65.20;;;;;;5097509;28;20038;-79
2021/04/19 11:06:34;;;;;;;5.22;4.40;;;15.30;68.00;;;;;;5097235;28;20031;-79
2021/04/19 11:09:17;;;;;;;6.50;4.78;;;15.20;66.70;;;;;;5115580;28;20028;-79
2021/04/19 11:11:48;;;;;;;4.88;3.90;;;15.10;65.00;;;;;;5115327;28;20044;-78
2021/04/19 11:14:15;;;;;;;4.95;4.32;;;15.30;66.70;;;;;;5097230;28;20412;-80
2021/04/19 11:16:54;;;;;;;4.45;4.05;;;15.30;67.20;;;;;;5115521;28;20027;-79
2021/04/19 11:19:29;;;;;;;4.70;4.25;;;15.20;63.30;;;;;;5115747;28;20022;-79
2021/04/19 11:21:55;;;;;;;4.38;3.92;;;15.40;66.30;;;;;;5115404;28;20109;-79
2021/04/19 11:24:21;;;;;;;4.80;4.25;;;15.30;67.00;;;;;;5097374;28;20474;-79
2021/04/19 11:26:48;;;;;;;5.95;4.10;;;15.40;67.10;;;;;;5115156;28;20039;-79
2021/04/19 11:29:34;;;;;;;5.40;3.90;;;15.50;67.70;;;;;;5115495;28;20082;-79
2021/04/19 11:32:00;;;;;;;4.53;4.13;;;15.60;66.80;;;;;;5097021;28;20035;-79
2021/04/19 11:34:34;;;;;;;5.32;4.30;;;15.50;67.10;;;;;;5115347;28;20039;-79
2021/04/19 11:37:00;;;;;;;5.47;3.70;;;15.50;67.20;;;;;;5115310;28;20126;-79
2021/04/19 11:39:26;;;;;;;6.28;4.97;;;15.50;67.50;;;;;;5115230;28;20056;-79
2021/04/19 11:41:52;;;;;;;7.30;4.65;;;15.10;66.50;;;;;;5114958;28;20433;-79
2021/04/19 11:44:18;;;;;;;6.65;5.10;;;15.10;67.00;;;;;;5115008;28;20064;-79
2021/04/19 11:46:46;;;;;;;4.40;4.00;;;14.80;67.20;;;;;;5115069;28;20036;-79
2021/04/19 11:49:20;;;;;;;8.52;5.88;;;14.90;67.90;;;;;;5114795;28;20027;-79
2021/04/19 11:51:46;;;;;;;7.93;5.68;;;14.70;66.40;;;;;;5114893;28;20050;-79
2021/04/19 11:54:12;;;;;;;5.43;4.30;;;14.60;67.90;;;;;;5114689;28;20038;-79
2021/04/19 11:56:39;;;;;;;5.50;4.22;;;14.80;68.90;;;;;;5114682;28;20055;-79
2021/04/19 11:59:06;;;;;;;4.93;4.32;;;15.00;69.30;;;;;;5114727;28;20023;-79
2021/04/19 12:01:34;;;;;;;6.63;4.40;;;15.10;68.80;;;;;;5096322;28;20121;-80
2021/04/19 12:04:03;;;;;;;4.47;3.88;;;15.20;68.60;;;;;;5096184;28;20066;-80
2021/04/19 12:06:28;;;;;;;4.40;4.00;;;15.30;68.60;;;;;;5095907;28;20035;-80
2021/04/19 12:08:54;;;;;;;10.18;4.57;;;15.40;67.90;;;;;;5096203;28;20488;-82
2021/04/19 12:11:23;;;;;;;4.20;3.80;;;15.60;67.70;;;;;;5114273;28;20050;-81
2021/04/19 12:13:50;;;;;;;5.15;4.38;;;15.70;66.90;;;;;;5114733;28;20031;-82
2021/04/19 12:16:18;;;;;;;5.20;4.40;;;15.80;65.50;;;;;;5114786;28;20027;-81
2021/04/19 12:18:44;;;;;;;6.63;4.00;;;15.90;65.80;;;;;;5115023;28;20519;-81
2021/04/19 12:21:10;;;;;;;5.00;4.50;;;16.00;65.70;;;;;;5114557;28;20032;-79
2021/04/19 12:23:36;;;;;;;6.05;4.28;;;16.10;64.20;;;;;;5114440;28;20131;-81
2021/04/19 12:26:02;;;;;;;4.82;4.32;;;15.70;64.10;;;;;;5114479;28;20035;-81
2021/04/19 12:28:28;;;;;;;4.50;4.03;;;16.00;64.60;;;;;;5114516;28;20027;-80
2021/04/19 12:30:54;;;;;;;5.55;4.07;;;16.10;65.00;;;;;;5114453;28;20461;-80
2021/04/19 12:33:21;;;;;;;7.60;4.32;;;16.30;65.00;;;;;;5114527;28;20035;-74
2021/04/19 12:35:47;;;;;;;4.25;3.85;;;16.60;63.00;;;;;;5113813;28;20035;-79
2021/04/19 12:38:13;;;;;;;4.72;4.30;;;16.80;63.80;;;;;;5114327;28;20039;-81
2021/04/19 12:40:40;;;;;;;5.50;3.83;;;16.90;63.60;;;;;;5096701;28;20497;-81
2021/04/19 12:43:06;;;;;;;6.00;4.70;;;17.20;63.40;;;;;;5096125;28;20032;-81
2021/04/19 12:45:32;;;;;;;3.90;3.60;;;16.90;59.20;;;;;;5114324;28;20032;-81
2021/04/19 12:48:03;;;;;;;5.25;3.83;;;17.20;59.40;;;;;;5114276;28;20038;-81
2021/04/19 12:50:30;;;;;;;6.82;4.40;;;17.30;60.30;;;;;;5095852;28;20039;-81
2021/04/19 12:53:00;;;;;;;4.35;3.95;;;17.70;59.90;;;;;;5095759;28;20112;-81